Terminal Aerodrome Forecast
Issued by NWS Cleveland, OH

Home | Current Version | Previous Version | Graphics & Text | Print | Product List | Glossary On
Versions: 1 2 3 4 5 6 7 8 9 10 11 12 13 14 15 16 17 18 19 20 21
000
FTUS41 KCLE 162335
TAFERI
TAF
KERI 162335Z 1700/1724 27010KT P6SM OVC015
      TEMPO 1700/1704 5SM -SHSN
     FM170500 23007KT 5SM -SHSN OVC015
     FM171200 25008KT P6SM OVC025
     FM172100 24012G20KT P6SM OVC035=

USA.gov is the U.S. government's official web portal to all federal, state and local government web resources and services.